createdAt,value
2024-01-16T00:01:17.756Z,2.32
2024-01-16T00:03:48.476Z,2.26
2024-01-16T00:06:17.175Z,2.22
2024-01-16T00:08:45.650Z,2.21
2024-01-16T00:11:14.421Z,2.20
2024-01-16T00:13:43.332Z,2.18
2024-01-16T00:16:12.092Z,2.14
2024-01-16T00:18:40.823Z,2.09
2024-01-16T00:21:09.456Z,2.12
2024-01-16T00:23:38.184Z,2.17
2024-01-16T00:26:07.665Z,2.20
2024-01-16T00:28:36.439Z,2.18
2024-01-16T00:31:09.535Z,2.18
2024-01-16T00:33:38.240Z,2.13
2024-01-16T00:36:07.343Z,2.12
2024-01-16T00:38:36.037Z,2.09
2024-01-16T00:41:05.379Z,1.91
2024-01-16T00:43:36.382Z,1.91
2024-01-16T00:46:05.844Z,1.92
2024-01-16T00:48:34.504Z,1.90
2024-01-16T00:51:04.490Z,1.86
2024-01-16T00:53:33.188Z,1.84
2024-01-16T00:56:01.863Z,1.82
2024-01-16T00:58:31.025Z,1.77
2024-01-16T01:00:59.936Z,1.71
2024-01-16T01:03:29.225Z,1.75
2024-01-16T01:05:59.582Z,1.76
2024-01-16T01:08:28.558Z,1.73
2024-01-16T01:10:57.658Z,1.73
2024-01-16T01:13:26.626Z,1.71
2024-01-16T01:15:55.299Z,1.68
2024-01-16T01:18:24.647Z,1.68
2024-01-16T01:20:53.458Z,1.70
2024-01-16T01:23:22.409Z,1.67
2024-01-16T01:25:51.269Z,1.63
2024-01-16T01:28:20.362Z,1.59
2024-01-16T01:30:49.167Z,1.57
2024-01-16T01:33:18.955Z,1.59
2024-01-16T01:35:47.741Z,1.59
2024-01-16T01:38:17.271Z,1.57
2024-01-16T01:40:45.948Z,1.57
2024-01-16T01:43:22.285Z,1.59
2024-01-16T01:46:04.184Z,1.61
2024-01-16T01:48:33.793Z,1.65
2024-01-16T01:51:03.083Z,1.73
2024-01-16T01:53:32.832Z,1.75
2024-01-16T01:56:02.666Z,1.74
2024-01-16T01:58:31.289Z,1.75
2024-01-16T02:01:00.961Z,1.75
2024-01-16T02:03:30.980Z,1.76
2024-01-16T02:06:00.573Z,1.79
2024-01-16T02:08:29.245Z,1.85
2024-01-16T02:10:58.297Z,1.86
2024-01-16T02:13:26.982Z,1.84
2024-01-16T02:15:55.697Z,1.83
2024-01-16T02:18:24.706Z,1.82
2024-01-16T02:20:53.854Z,1.80
2024-01-16T02:23:28.214Z,1.81
2024-01-16T02:25:57.068Z,1.81
2024-01-16T02:28:25.649Z,1.80
2024-01-16T02:30:54.528Z,1.75
2024-01-16T02:33:23.239Z,1.70
2024-01-16T02:35:52.150Z,1.68
2024-01-16T02:38:20.732Z,1.66
2024-01-16T02:40:49.603Z,1.69
2024-01-16T02:43:18.474Z,1.70
2024-01-16T02:45:47.162Z,1.67
2024-01-16T02:48:16.984Z,1.64
2024-01-16T02:50:46.081Z,1.61
2024-01-16T02:53:15.308Z,1.56
2024-01-16T02:55:43.960Z,1.53
2024-01-16T02:58:12.771Z,1.56
2024-01-16T03:00:41.263Z,1.56
2024-01-16T03:03:10.435Z,1.53
2024-01-16T03:05:39.190Z,1.51
2024-01-16T03:08:08.498Z,1.48
2024-01-16T03:10:37.417Z,1.46
2024-01-16T03:13:06.526Z,1.45
2024-01-16T03:15:35.402Z,1.46
2024-01-16T03:18:04.835Z,1.43
2024-01-16T03:20:34.139Z,1.39
2024-01-16T03:23:03.095Z,1.38
2024-01-16T03:25:31.985Z,1.39
2024-01-16T03:28:00.568Z,1.39
2024-01-16T03:30:29.617Z,1.39
2024-01-16T03:32:58.826Z,1.41
2024-01-16T03:35:27.668Z,1.42
2024-01-16T03:37:56.436Z,1.39
2024-01-16T03:40:25.132Z,1.37
2024-01-16T03:42:54.421Z,1.35
2024-01-16T03:45:22.904Z,1.33
2024-01-16T03:47:51.895Z,1.32
2024-01-16T03:50:21.001Z,1.33
2024-01-16T03:52:49.987Z,1.30
2024-01-16T03:55:18.975Z,1.22
2024-01-16T03:57:48.682Z,1.17
2024-01-16T04:00:17.893Z,1.12
2024-01-16T04:02:46.548Z,1.10
2024-01-16T04:05:15.552Z,1.10
2024-01-16T04:07:44.441Z,1.06
2024-01-16T04:10:13.136Z,0.99
2024-01-16T04:12:42.331Z,0.91
2024-01-16T04:15:11.219Z,0.83
2024-01-16T04:17:39.844Z,0.75
2024-01-16T04:20:09.658Z,0.68
2024-01-16T04:22:38.401Z,0.59
2024-01-16T04:25:07.393Z,0.45
2024-01-16T04:27:35.987Z,0.36
2024-01-16T04:30:05.747Z,0.26
2024-01-16T04:32:35.073Z,0.20
2024-01-16T04:35:04.697Z,0.15
2024-01-16T04:37:33.279Z,0.07
2024-01-16T04:40:01.908Z,0.00
2024-01-16T04:42:31.185Z,-0.05
2024-01-16T04:45:00.054Z,-0.11
2024-01-16T04:47:28.661Z,-0.13
2024-01-16T04:49:57.640Z,-0.16
2024-01-16T04:52:26.321Z,-0.21
2024-01-16T04:54:54.815Z,-0.27
2024-01-16T04:57:24.611Z,-0.30
2024-01-16T04:59:53.255Z,-0.35
2024-01-16T05:02:21.924Z,-0.36
2024-01-16T05:04:53.246Z,-0.39
2024-01-16T05:07:22.041Z,-0.46
2024-01-16T05:09:50.810Z,-0.52
2024-01-16T05:12:19.690Z,-0.56
2024-01-16T05:14:49.615Z,-0.57
2024-01-16T05:17:18.450Z,-0.57
2024-01-16T05:19:47.010Z,-0.59
2024-01-16T05:22:16.792Z,-0.61
2024-01-16T05:24:46.807Z,-0.62
2024-01-16T05:27:15.796Z,-0.58
2024-01-16T05:29:44.852Z,-0.54
2024-01-16T05:32:16.354Z,-0.54
2024-01-16T05:34:45.305Z,-0.54
2024-01-16T05:37:14.123Z,-0.52
2024-01-16T05:39:44.042Z,-0.51
2024-01-16T05:42:13.840Z,-0.50
2024-01-16T05:44:42.462Z,-0.47
2024-01-16T05:47:11.961Z,-0.40
2024-01-16T05:49:40.879Z,-0.37
2024-01-16T05:52:10.236Z,-0.38
2024-01-16T05:54:38.920Z,-0.39
2024-01-16T05:57:07.812Z,-0.42
2024-01-16T05:59:36.409Z,-0.43
2024-01-16T06:02:05.472Z,-0.40
2024-01-16T06:04:34.377Z,-0.37
2024-01-16T06:07:05.052Z,-0.39
2024-01-16T06:09:33.782Z,-0.41
2024-01-16T06:12:02.595Z,-0.44
2024-01-16T06:14:32.112Z,-0.48
2024-01-16T06:17:01.789Z,-0.49
2024-01-16T06:19:30.409Z,-0.50
2024-01-16T06:22:02.742Z,-0.51
2024-01-16T06:24:38.333Z,-0.49
2024-01-16T06:27:10.350Z,-0.51
2024-01-16T06:29:39.237Z,-0.54
2024-01-16T06:32:09.279Z,-0.62
2024-01-16T06:34:38.402Z,-0.68
2024-01-16T06:37:07.348Z,-0.68
2024-01-16T06:39:39.304Z,-0.72
2024-01-16T06:42:10.804Z,-0.74
2024-01-16T06:44:40.234Z,-0.72
2024-01-16T06:47:09.106Z,-0.67
2024-01-16T06:49:38.253Z,-0.69
2024-01-16T06:52:08.626Z,-0.73
2024-01-16T06:54:37.082Z,-0.70
2024-01-16T06:57:06.155Z,-0.66
2024-01-16T06:59:35.060Z,-0.63
2024-01-16T07:02:04.853Z,-0.63
2024-01-16T07:04:34.351Z,-0.58
2024-01-16T07:07:03.133Z,-0.47
2024-01-16T07:09:31.609Z,-0.06
2024-01-16T07:12:00.171Z,1.78
2024-01-16T07:14:29.609Z,3.81
2024-01-16T07:16:58.379Z,5.53
2024-01-16T07:19:27.220Z,6.66
2024-01-16T07:21:56.321Z,6.95
2024-01-16T07:24:25.871Z,7.56
2024-01-16T07:26:55.676Z,6.94
2024-01-16T07:29:24.420Z,6.27
2024-01-16T07:31:54.285Z,5.59
2024-01-16T07:34:23.544Z,4.98
2024-01-16T07:36:52.158Z,4.61
2024-01-16T07:39:20.738Z,4.69
2024-01-16T07:41:49.466Z,5.37
2024-01-16T07:44:18.484Z,6.77
2024-01-16T07:46:47.311Z,6.64
2024-01-16T07:49:16.386Z,5.75
2024-01-16T07:51:45.748Z,4.99
2024-01-16T07:54:16.488Z,4.55
2024-01-16T07:56:46.009Z,4.34
2024-01-16T07:59:15.591Z,4.56
2024-01-16T08:01:45.798Z,5.85
2024-01-16T08:04:17.452Z,5.29
2024-01-16T08:06:49.326Z,4.71
2024-01-16T08:09:21.496Z,4.22
2024-01-16T08:11:50.636Z,3.73
2024-01-16T08:14:19.544Z,3.33
2024-01-16T08:16:48.343Z,3.16
2024-01-16T08:19:17.251Z,3.01
2024-01-16T08:21:49.192Z,2.81
2024-01-16T08:24:18.208Z,2.82
2024-01-16T08:26:46.846Z,2.83
2024-01-16T08:29:16.000Z,3.15
2024-01-16T08:31:44.666Z,4.33
2024-01-16T08:34:15.128Z,5.23
2024-01-16T08:36:46.796Z,7.24
2024-01-16T08:39:15.369Z,9.17
2024-01-16T08:41:44.445Z,10.51
2024-01-16T08:44:14.259Z,11.06
2024-01-16T08:46:43.336Z,10.58
2024-01-16T08:49:16.273Z,10.02
2024-01-16T08:51:51.465Z,9.28
2024-01-16T08:54:20.447Z,8.74
2024-01-16T08:56:49.121Z,8.38
2024-01-16T08:59:18.350Z,8.01
2024-01-16T09:01:47.234Z,7.59
2024-01-16T09:04:15.990Z,7.72
2024-01-16T09:06:44.973Z,8.27
2024-01-16T09:09:17.367Z,9.75
2024-01-16T09:11:45.897Z,11.42
2024-01-16T09:14:15.796Z,12.74
2024-01-16T09:16:44.658Z,13.04
2024-01-16T09:19:13.667Z,12.33
2024-01-16T09:21:42.358Z,13.37
2024-01-16T09:24:13.941Z,14.38
2024-01-16T09:26:45.487Z,13.63
2024-01-16T09:29:15.924Z,14.30
2024-01-16T09:31:44.864Z,15.15
2024-01-16T09:34:16.600Z,15.01
2024-01-16T09:36:47.767Z,15.95
2024-01-16T09:39:19.317Z,16.54
2024-01-16T09:41:51.064Z,17.08
2024-01-16T09:44:21.664Z,16.89
2024-01-16T09:46:51.748Z,17.05
2024-01-16T09:49:20.764Z,17.91
2024-01-16T09:51:49.605Z,18.60
2024-01-16T09:54:19.098Z,18.90
2024-01-16T09:56:50.028Z,19.19
2024-01-16T09:59:22.631Z,19.34
2024-01-16T10:01:57.278Z,19.53
2024-01-16T10:04:26.794Z,19.17
2024-01-16T10:06:57.630Z,19.79
2024-01-16T10:09:26.962Z,19.82
2024-01-16T10:11:57.322Z,19.89
2024-01-16T10:14:25.900Z,20.22
2024-01-16T10:17:04.015Z,19.72
2024-01-16T10:19:43.190Z,20.07
2024-01-16T10:22:25.472Z,19.98
2024-01-16T10:25:13.826Z,19.42
2024-01-16T10:27:42.353Z,19.07
2024-01-16T10:30:11.899Z,19.69
2024-01-16T10:32:43.499Z,20.23
2024-01-16T10:35:14.369Z,20.68
2024-01-16T10:37:51.084Z,20.58
2024-01-16T10:40:23.690Z,20.89
2024-01-16T10:43:05.296Z,20.95
2024-01-16T10:45:36.039Z,21.08
2024-01-16T10:48:10.202Z,20.72
2024-01-16T10:50:40.646Z,20.68
2024-01-16T10:53:10.627Z,20.81
2024-01-16T10:55:54.558Z,20.35
2024-01-16T10:58:31.305Z,20.41
2024-01-16T11:01:07.205Z,19.92
2024-01-16T11:03:54.536Z,20.09
2024-01-16T11:06:23.469Z,20.34
2024-01-16T11:08:53.100Z,20.35
2024-01-16T11:11:22.189Z,19.77
2024-01-16T11:13:51.773Z,19.74
2024-01-16T11:16:21.481Z,19.88
2024-01-16T11:18:50.035Z,20.01
2024-01-16T11:21:19.562Z,19.66
2024-01-16T11:23:50.022Z,19.77
2024-01-16T11:26:34.810Z,19.92
2024-01-16T11:29:40.835Z,20.14
2024-01-16T11:32:22.994Z,20.07
2024-01-16T11:34:57.436Z,19.85
2024-01-16T11:37:31.386Z,19.20
2024-01-16T11:40:22.366Z,19.32
2024-01-16T11:42:56.203Z,19.25
2024-01-16T11:45:30.889Z,18.76
2024-01-16T11:48:12.761Z,18.64
2024-01-16T11:50:42.338Z,18.88
2024-01-16T11:53:11.076Z,18.91
2024-01-16T11:56:01.482Z,19.12
2024-01-16T11:58:42.449Z,18.57
2024-01-16T12:01:13.711Z,18.87
2024-01-16T12:03:42.479Z,18.70
2024-01-16T12:06:12.601Z,19.10
2024-01-16T12:08:41.404Z,19.44
2024-01-16T12:11:10.385Z,19.43
2024-01-16T12:13:39.168Z,19.27
2024-01-16T12:16:07.961Z,18.77
2024-01-16T12:18:42.627Z,18.81
2024-01-16T12:21:14.764Z,18.97
2024-01-16T12:23:52.258Z,18.97
2024-01-16T12:26:25.291Z,19.16
2024-01-16T12:28:58.288Z,19.24
2024-01-16T12:31:29.866Z,19.18
2024-01-16T12:34:11.805Z,19.10
2024-01-16T12:36:40.651Z,19.02
2024-01-16T12:39:13.807Z,19.12
2024-01-16T12:41:45.116Z,19.20
2024-01-16T12:44:16.911Z,19.18
2024-01-16T12:46:57.430Z,19.28
2024-01-16T12:49:26.644Z,19.36
2024-01-16T12:52:27.113Z,19.34
2024-01-16T12:55:02.863Z,19.47
2024-01-16T12:57:31.681Z,19.27
2024-01-16T13:00:02.674Z,18.98
2024-01-16T13:02:32.356Z,18.83
2024-01-16T13:05:04.508Z,18.84
2024-01-16T13:07:34.816Z,18.69
2024-01-16T13:10:23.887Z,18.43
2024-01-16T13:12:53.719Z,17.19
2024-01-16T13:15:22.584Z,17.03
2024-01-16T13:17:51.322Z,16.73
2024-01-16T13:20:21.291Z,16.41
2024-01-16T13:22:52.912Z,15.85
2024-01-16T13:25:21.832Z,14.77
2024-01-16T13:27:50.411Z,13.84
2024-01-16T13:30:21.826Z,13.00
2024-01-16T13:32:51.424Z,12.52
2024-01-16T13:35:20.411Z,12.33
2024-01-16T13:37:48.833Z,12.12
2024-01-16T13:40:22.590Z,12.04
2024-01-16T13:42:52.663Z,11.97
2024-01-16T13:45:21.557Z,11.70
2024-01-16T13:47:50.773Z,11.30
2024-01-16T13:50:19.962Z,10.87
2024-01-16T13:52:48.836Z,10.82
2024-01-16T13:55:17.877Z,10.48
2024-01-16T13:57:46.620Z,9.79
2024-01-16T14:00:17.002Z,9.29
2024-01-16T14:02:47.487Z,8.77
2024-01-16T14:05:19.502Z,8.23
2024-01-16T14:07:53.182Z,8.44
2024-01-16T14:10:23.462Z,8.34
2024-01-16T14:12:52.988Z,8.04
2024-01-16T14:15:26.880Z,7.68
2024-01-16T14:17:56.911Z,7.26
2024-01-16T14:20:28.454Z,6.93
2024-01-16T14:22:59.231Z,6.61
2024-01-16T14:25:28.281Z,6.16
2024-01-16T14:28:05.163Z,5.80
2024-01-16T14:30:35.883Z,5.47
2024-01-16T14:33:08.313Z,5.13
2024-01-16T14:35:37.073Z,4.78
2024-01-16T14:38:05.623Z,4.47
2024-01-16T14:40:34.406Z,4.14
2024-01-16T14:43:05.525Z,3.85
2024-01-16T14:45:34.130Z,3.60
2024-01-16T14:48:05.893Z,3.36
2024-01-16T14:50:34.786Z,3.12
2024-01-16T14:53:04.653Z,2.93
2024-01-16T14:55:34.521Z,2.74
2024-01-16T14:58:03.391Z,2.56
2024-01-16T15:00:33.207Z,2.40
2024-01-16T15:03:02.128Z,2.24
2024-01-16T15:05:31.403Z,2.10
2024-01-16T15:08:00.215Z,1.96
2024-01-16T15:10:28.976Z,1.87
2024-01-16T15:12:57.967Z,1.80
2024-01-16T15:15:27.364Z,1.75
2024-01-16T15:17:56.055Z,1.71
2024-01-16T15:20:25.518Z,1.65
2024-01-16T15:22:54.973Z,1.61
2024-01-16T15:25:24.879Z,1.56
2024-01-16T15:27:56.742Z,1.53
2024-01-16T15:30:34.155Z,1.51
2024-01-16T15:33:05.620Z,1.51
2024-01-16T15:35:35.431Z,1.53
2024-01-16T15:38:04.601Z,1.51
2024-01-16T15:40:36.350Z,1.47
2024-01-16T15:43:07.284Z,1.41
2024-01-16T15:45:35.974Z,1.34
2024-01-16T15:48:05.550Z,1.27
2024-01-16T15:50:34.400Z,1.19
2024-01-16T15:53:03.630Z,1.13
2024-01-16T15:55:38.341Z,1.06
2024-01-16T15:58:06.978Z,0.99
2024-01-16T16:00:35.574Z,0.91
2024-01-16T16:03:04.276Z,0.82
2024-01-16T16:05:33.505Z,0.74
2024-01-16T16:08:02.141Z,0.66
2024-01-16T16:10:30.623Z,0.57
2024-01-16T16:13:00.792Z,0.50
2024-01-16T16:15:30.256Z,0.44
2024-01-16T16:17:59.750Z,0.39
2024-01-16T16:20:28.516Z,0.34
2024-01-16T16:22:56.965Z,0.28
2024-01-16T16:25:25.670Z,0.20
2024-01-16T16:27:54.291Z,0.14
2024-01-16T16:30:22.852Z,0.09
2024-01-16T16:32:52.444Z,0.04
2024-01-16T16:35:23.510Z,0.02
2024-01-16T16:37:52.363Z,-0.01
2024-01-16T16:40:20.945Z,-0.03
2024-01-16T16:42:49.262Z,-0.06
2024-01-16T16:45:18.507Z,-0.13
2024-01-16T16:47:46.991Z,-0.18
2024-01-16T16:50:15.928Z,-0.26
2024-01-16T16:52:45.332Z,-0.33
2024-01-16T16:55:18.823Z,-0.40
2024-01-16T16:57:49.378Z,-0.48
2024-01-16T17:00:18.412Z,-0.57
2024-01-16T17:02:47.380Z,-0.67
2024-01-16T17:05:18.451Z,-0.77
2024-01-16T17:07:47.760Z,-0.86
2024-01-16T17:10:17.408Z,-0.97
2024-01-16T17:12:46.687Z,-1.05
2024-01-16T17:15:17.591Z,-1.13
2024-01-16T17:17:47.479Z,-1.20
2024-01-16T17:20:16.408Z,-1.25
2024-01-16T17:22:47.431Z,-1.30
2024-01-16T17:25:16.132Z,-1.34
2024-01-16T17:27:47.293Z,-1.40
2024-01-16T17:30:16.835Z,-1.45
2024-01-16T17:32:46.079Z,-1.52
2024-01-16T17:35:15.213Z,-1.59
2024-01-16T17:37:43.893Z,-1.66
2024-01-16T17:40:15.363Z,-1.72
2024-01-16T17:42:45.451Z,-1.77
2024-01-16T17:45:15.713Z,-1.80
2024-01-16T17:47:45.192Z,-1.79
2024-01-16T17:50:13.826Z,-1.78
2024-01-16T17:52:42.239Z,-1.82
2024-01-16T17:55:13.195Z,-1.89
2024-01-16T17:57:44.605Z,-1.91
2024-01-16T18:00:13.847Z,-1.93
2024-01-16T18:02:42.678Z,-1.95
2024-01-16T18:05:18.099Z,-1.98
2024-01-16T18:07:46.933Z,-1.99
2024-01-16T18:10:15.854Z,-1.97
2024-01-16T18:12:44.562Z,-1.93
2024-01-16T18:15:14.196Z,-1.94
2024-01-16T18:17:51.136Z,-1.97
2024-01-16T18:20:23.393Z,-2.03
2024-01-16T18:22:57.229Z,-2.08
2024-01-16T18:25:28.679Z,-2.14
2024-01-16T18:28:00.813Z,-2.19
2024-01-16T18:30:30.073Z,-2.21
2024-01-16T18:32:58.964Z,-2.25
2024-01-16T18:35:27.988Z,-2.30
2024-01-16T18:37:57.081Z,-2.34
2024-01-16T18:40:27.316Z,-2.35
2024-01-16T18:42:56.008Z,-2.35
2024-01-16T18:45:24.602Z,-2.35
2024-01-16T18:47:55.302Z,-2.34
2024-01-16T18:50:24.260Z,-2.36
2024-01-16T18:52:55.377Z,-2.35
2024-01-16T18:55:23.783Z,-2.32
2024-01-16T18:57:52.128Z,-2.27
2024-01-16T19:00:24.490Z,-2.23
2024-01-16T19:02:54.540Z,-2.19
2024-01-16T19:05:24.111Z,-2.19
2024-01-16T19:07:53.497Z,-2.20
2024-01-16T19:10:25.216Z,-2.22
2024-01-16T19:12:54.342Z,-2.25
2024-01-16T19:15:23.422Z,-2.31
2024-01-16T19:17:54.506Z,-2.35
2024-01-16T19:20:24.086Z,-2.40
2024-01-16T19:22:56.607Z,-2.45
2024-01-16T19:25:27.040Z,-2.51
2024-01-16T19:27:56.120Z,-2.58
2024-01-16T19:30:27.092Z,-2.61
2024-01-16T19:32:56.274Z,-2.63
2024-01-16T19:35:24.988Z,-2.63
2024-01-16T19:37:53.582Z,-2.61
2024-01-16T19:40:22.266Z,-2.58
2024-01-16T19:42:51.820Z,-2.59
2024-01-16T19:45:24.162Z,-2.60
2024-01-16T19:47:54.364Z,-2.61
2024-01-16T19:50:23.974Z,-2.61
2024-01-16T19:52:56.653Z,-2.63
2024-01-16T19:55:25.950Z,-2.59
2024-01-16T19:57:58.468Z,-2.63
2024-01-16T20:00:27.736Z,-2.67
2024-01-16T20:02:57.096Z,-2.70
2024-01-16T20:05:26.443Z,-2.76
2024-01-16T20:07:55.226Z,-2.81
2024-01-16T20:10:24.209Z,-2.86
2024-01-16T20:12:52.758Z,-2.92
2024-01-16T20:15:22.886Z,-2.98
2024-01-16T20:17:55.356Z,-3.03
2024-01-16T20:20:25.043Z,-3.09
2024-01-16T20:22:54.042Z,-3.13
2024-01-16T20:25:24.946Z,-3.16
2024-01-16T20:27:53.828Z,-3.22
2024-01-16T20:30:22.598Z,-3.26
2024-01-16T20:32:54.012Z,-3.30
2024-01-16T20:35:25.186Z,-3.36
2024-01-16T20:37:53.762Z,-3.42
2024-01-16T20:40:22.713Z,-3.47
2024-01-16T20:42:51.104Z,-3.52
2024-01-16T20:45:21.797Z,-3.54
2024-01-16T20:50:19.491Z,-3.64
2024-01-16T20:52:48.111Z,-3.67
2024-01-16T20:55:16.652Z,-3.65
2024-01-16T20:57:45.123Z,-3.66
2024-01-16T21:00:16.140Z,-3.70
2024-01-16T21:02:44.876Z,-3.73
2024-01-16T21:05:13.618Z,-3.76
2024-01-16T21:07:43.519Z,-3.78
2024-01-16T21:10:12.299Z,-3.78
2024-01-16T21:12:42.800Z,-3.77
2024-01-16T21:15:11.286Z,-3.81
2024-01-16T21:17:39.838Z,-3.89
2024-01-16T21:20:09.401Z,-3.96
2024-01-16T21:22:37.988Z,-4.00
2024-01-16T21:25:07.065Z,-4.04
2024-01-16T21:27:38.573Z,-4.07
2024-01-16T21:30:09.763Z,-4.05
2024-01-16T21:32:38.551Z,-4.06
2024-01-16T21:35:07.835Z,-4.10
2024-01-16T21:37:38.421Z,-4.13
2024-01-16T21:40:09.065Z,-4.17
2024-01-16T21:42:37.614Z,-4.21
2024-01-16T21:45:06.838Z,-4.23
2024-01-16T21:47:35.668Z,-4.23
2024-01-16T21:50:07.565Z,-4.23
2024-01-16T21:52:36.688Z,-4.25
2024-01-16T21:55:05.725Z,-4.24
2024-01-16T21:57:35.368Z,-4.25
2024-01-16T22:00:06.001Z,-4.30
2024-01-16T22:02:35.430Z,-4.40
2024-01-16T22:05:04.061Z,-4.48
2024-01-16T22:07:32.571Z,-4.52
2024-01-16T22:10:01.668Z,-4.51
2024-01-16T22:12:30.270Z,-4.54
2024-01-16T22:14:58.841Z,-4.54
2024-01-16T22:17:30.555Z,-4.53
2024-01-16T22:19:59.299Z,-4.54
2024-01-16T22:22:28.323Z,-4.52
2024-01-16T22:24:56.948Z,-4.51
2024-01-16T22:27:25.809Z,-4.48
2024-01-16T22:29:54.399Z,-4.47
2024-01-16T22:32:23.048Z,-4.43
2024-01-16T22:34:51.635Z,-4.42
2024-01-16T22:37:20.878Z,-4.40
2024-01-16T22:39:49.327Z,-4.40
2024-01-16T22:42:18.564Z,-4.38
2024-01-16T22:44:47.884Z,-4.33
2024-01-16T22:47:16.611Z,-4.34
2024-01-16T22:49:45.146Z,-4.40
2024-01-16T22:52:17.642Z,-4.47
2024-01-16T22:54:47.269Z,-4.51
2024-01-16T22:57:16.280Z,-4.52
2024-01-16T22:59:44.783Z,-4.53
2024-01-16T23:02:13.413Z,-4.50
2024-01-16T23:04:41.936Z,-4.42
2024-01-16T23:07:10.672Z,-4.37
2024-01-16T23:09:39.159Z,-4.34
2024-01-16T23:12:09.097Z,-4.32
2024-01-16T23:14:38.519Z,-4.28
2024-01-16T23:17:07.206Z,-4.24
2024-01-16T23:19:35.737Z,-4.21
2024-01-16T23:22:04.350Z,-4.17
2024-01-16T23:24:32.916Z,-4.14
2024-01-16T23:27:01.590Z,-4.11
2024-01-16T23:29:32.238Z,-4.11
2024-01-16T23:32:02.207Z,-4.11
2024-01-16T23:34:30.492Z,-4.24
2024-01-16T23:36:58.990Z,-4.40
2024-01-16T23:39:27.891Z,-4.50
2024-01-16T23:41:57.906Z,-4.54
2024-01-16T23:44:26.223Z,-4.62
2024-01-16T23:46:54.681Z,-4.62
2024-01-16T23:49:23.070Z,-4.62
2024-01-16T23:51:51.479Z,-4.57
2024-01-16T23:54:20.265Z,-4.53
2024-01-16T23:56:49.078Z,-4.45
2024-01-16T23:59:17.653Z,-4.37
